sensor_id;sensor_type;location;lat;lon;timestamp;P1;durP1;ratioP1;P2;durP2;ratioP2
71637;SDS011;59485;43.542;-5.676;2023-07-13T00:01:16;10.18;;;3.47;;
71637;SDS011;59485;43.542;-5.676;2023-07-13T00:03:42;10.03;;;3.30;;
71637;SDS011;59485;43.542;-5.676;2023-07-13T00:06:08;10.98;;;3.00;;
71637;SDS011;59485;43.542;-5.676;2023-07-13T00:08:34;8.13;;;3.75;;
71637;SDS011;59485;43.542;-5.676;2023-07-13T00:11:01;8.70;;;3.00;;
71637;SDS011;59485;43.542;-5.676;2023-07-13T00:13:27;7.33;;;3.17;;
71637;SDS011;59485;43.542;-5.676;2023-07-13T00:15:54;7.47;;;3.42;;
71637;SDS011;59485;43.542;-5.676;2023-07-13T00:18:21;9.95;;;3.20;;
71637;SDS011;59485;43.542;-5.676;2023-07-13T00:20:47;9.07;;;3.28;;
71637;SDS011;59485;43.542;-5.676;2023-07-13T00:23:13;9.27;;;3.25;;
71637;SDS011;59485;43.542;-5.676;2023-07-13T00:25:39;12.13;;;4.17;;
71637;SDS011;59485;43.542;-5.676;2023-07-13T00:28:05;7.78;;;3.03;;
71637;SDS011;59485;43.542;-5.676;2023-07-13T00:30:31;8.70;;;3.65;;
71637;SDS011;59485;43.542;-5.676;2023-07-13T00:32:56;10.60;;;3.67;;
71637;SDS011;59485;43.542;-5.676;2023-07-13T00:35:22;8.97;;;3.70;;
71637;SDS011;59485;43.542;-5.676;2023-07-13T00:37:48;7.50;;;3.47;;
71637;SDS011;59485;43.542;-5.676;2023-07-13T00:40:15;8.30;;;3.72;;
71637;SDS011;59485;43.542;-5.676;2023-07-13T00:42:44;10.02;;;3.83;;
71637;SDS011;59485;43.542;-5.676;2023-07-13T00:47:40;8.43;;;3.33;;
71637;SDS011;59485;43.542;-5.676;2023-07-13T00:50:07;7.73;;;3.10;;
71637;SDS011;59485;43.542;-5.676;2023-07-13T00:52:36;8.85;;;3.20;;
71637;SDS011;59485;43.542;-5.676;2023-07-13T00:55:05;15.00;;;4.32;;
71637;SDS011;59485;43.542;-5.676;2023-07-13T00:57:31;12.82;;;4.75;;
71637;SDS011;59485;43.542;-5.676;2023-07-13T00:59:58;10.90;;;4.70;;
71637;SDS011;59485;43.542;-5.676;2023-07-13T01:02:31;12.45;;;5.07;;
71637;SDS011;59485;43.542;-5.676;2023-07-13T01:04:58;11.75;;;4.72;;
71637;SDS011;59485;43.542;-5.676;2023-07-13T01:07:24;12.93;;;5.03;;
71637;SDS011;59485;43.542;-5.676;2023-07-13T01:09:50;13.73;;;4.72;;
71637;SDS011;59485;43.542;-5.676;2023-07-13T01:12:16;14.13;;;4.30;;
71637;SDS011;59485;43.542;-5.676;2023-07-13T01:14:41;13.03;;;5.17;;
71637;SDS011;59485;43.542;-5.676;2023-07-13T01:17:10;11.67;;;4.17;;
71637;SDS011;59485;43.542;-5.676;2023-07-13T01:19:38;15.02;;;5.07;;
71637;SDS011;59485;43.542;-5.676;2023-07-13T01:22:11;13.95;;;5.45;;
71637;SDS011;59485;43.542;-5.676;2023-07-13T01:24:42;16.65;;;6.55;;
71637;SDS011;59485;43.542;-5.676;2023-07-13T01:27:20;20.73;;;9.73;;
71637;SDS011;59485;43.542;-5.676;2023-07-13T01:29:50;21.10;;;10.43;;
71637;SDS011;59485;43.542;-5.676;2023-07-13T01:32:28;29.42;;;13.65;;
71637;SDS011;59485;43.542;-5.676;2023-07-13T01:34:53;33.60;;;16.95;;
71637;SDS011;59485;43.542;-5.676;2023-07-13T01:37:20;41.87;;;21.33;;
71637;SDS011;59485;43.542;-5.676;2023-07-13T01:39:46;51.63;;;25.60;;
71637;SDS011;59485;43.542;-5.676;2023-07-13T01:42:12;50.53;;;25.63;;
71637;SDS011;59485;43.542;-5.676;2023-07-13T01:44:38;42.80;;;22.83;;
71637;SDS011;59485;43.542;-5.676;2023-07-13T01:47:04;50.47;;;24.03;;
71637;SDS011;59485;43.542;-5.676;2023-07-13T01:49:30;60.92;;;29.70;;
71637;SDS011;59485;43.542;-5.676;2023-07-13T01:51:56;77.25;;;36.05;;
71637;SDS011;59485;43.542;-5.676;2023-07-13T01:54:21;65.73;;;32.53;;
71637;SDS011;59485;43.542;-5.676;2023-07-13T01:56:47;58.93;;;26.50;;
71637;SDS011;59485;43.542;-5.676;2023-07-13T01:59:12;47.38;;;21.80;;
71637;SDS011;59485;43.542;-5.676;2023-07-13T02:01:38;34.77;;;17.33;;
71637;SDS011;59485;43.542;-5.676;2023-07-13T02:04:04;26.48;;;12.65;;
71637;SDS011;59485;43.542;-5.676;2023-07-13T02:06:30;25.77;;;11.30;;
71637;SDS011;59485;43.542;-5.676;2023-07-13T02:08:55;24.52;;;10.93;;
71637;SDS011;59485;43.542;-5.676;2023-07-13T02:11:21;19.87;;;8.90;;
71637;SDS011;59485;43.542;-5.676;2023-07-13T02:13:47;18.33;;;8.07;;
71637;SDS011;59485;43.542;-5.676;2023-07-13T02:16:12;20.33;;;7.73;;
71637;SDS011;59485;43.542;-5.676;2023-07-13T02:18:38;18.25;;;7.85;;
71637;SDS011;59485;43.542;-5.676;2023-07-13T02:21:04;17.90;;;8.03;;
71637;SDS011;59485;43.542;-5.676;2023-07-13T02:23:29;16.80;;;8.18;;
71637;SDS011;59485;43.542;-5.676;2023-07-13T02:25:56;14.57;;;8.57;;
71637;SDS011;59485;43.542;-5.676;2023-07-13T02:28:22;18.70;;;7.50;;
71637;SDS011;59485;43.542;-5.676;2023-07-13T02:30:47;15.95;;;6.65;;
71637;SDS011;59485;43.542;-5.676;2023-07-13T02:35:41;15.77;;;6.65;;
71637;SDS011;59485;43.542;-5.676;2023-07-13T02:38:20;19.02;;;6.47;;
71637;SDS011;59485;43.542;-5.676;2023-07-13T02:40:46;15.43;;;6.57;;
71637;SDS011;59485;43.542;-5.676;2023-07-13T02:43:12;21.57;;;7.33;;
71637;SDS011;59485;43.542;-5.676;2023-07-13T02:45:37;13.05;;;5.28;;
71637;SDS011;59485;43.542;-5.676;2023-07-13T02:48:04;15.57;;;6.40;;
71637;SDS011;59485;43.542;-5.676;2023-07-13T02:50:30;15.13;;;6.73;;
71637;SDS011;59485;43.542;-5.676;2023-07-13T02:52:55;15.85;;;6.95;;
71637;SDS011;59485;43.542;-5.676;2023-07-13T02:55:21;15.27;;;6.30;;
71637;SDS011;59485;43.542;-5.676;2023-07-13T02:57:46;16.23;;;6.07;;
71637;SDS011;59485;43.542;-5.676;2023-07-13T03:00:12;12.67;;;6.47;;
71637;SDS011;59485;43.542;-5.676;2023-07-13T03:02:38;17.35;;;6.75;;
71637;SDS011;59485;43.542;-5.676;2023-07-13T03:05:04;19.65;;;6.25;;
71637;SDS011;59485;43.542;-5.676;2023-07-13T03:07:30;17.83;;;7.30;;
71637;SDS011;59485;43.542;-5.676;2023-07-13T03:09:58;18.15;;;7.20;;
71637;SDS011;59485;43.542;-5.676;2023-07-13T03:12:24;15.25;;;6.68;;
71637;SDS011;59485;43.542;-5.676;2023-07-13T03:14:50;21.95;;;8.95;;
71637;SDS011;59485;43.542;-5.676;2023-07-13T03:19:43;20.67;;;7.55;;
71637;SDS011;59485;43.542;-5.676;2023-07-13T03:22:09;14.23;;;6.97;;
71637;SDS011;59485;43.542;-5.676;2023-07-13T03:27:01;12.95;;;6.05;;
71637;SDS011;59485;43.542;-5.676;2023-07-13T03:29:29;15.45;;;6.10;;
71637;SDS011;59485;43.542;-5.676;2023-07-13T03:31:54;14.27;;;5.90;;
71637;SDS011;59485;43.542;-5.676;2023-07-13T03:34:20;13.18;;;6.07;;
71637;SDS011;59485;43.542;-5.676;2023-07-13T03:36:49;13.50;;;5.83;;
71637;SDS011;59485;43.542;-5.676;2023-07-13T03:41:45;14.77;;;6.45;;
71637;SDS011;59485;43.542;-5.676;2023-07-13T03:44:20;16.17;;;5.90;;
71637;SDS011;59485;43.542;-5.676;2023-07-13T03:46:45;12.30;;;5.60;;
71637;SDS011;59485;43.542;-5.676;2023-07-13T03:51:45;12.05;;;5.60;;
71637;SDS011;59485;43.542;-5.676;2023-07-13T03:54:11;13.40;;;5.70;;
71637;SDS011;59485;43.542;-5.676;2023-07-13T03:56:37;13.60;;;6.05;;
71637;SDS011;59485;43.542;-5.676;2023-07-13T03:59:02;11.20;;;6.30;;
71637;SDS011;59485;43.542;-5.676;2023-07-13T04:01:28;15.02;;;5.80;;
71637;SDS011;59485;43.542;-5.676;2023-07-13T04:03:56;16.35;;;6.93;;
71637;SDS011;59485;43.542;-5.676;2023-07-13T04:06:23;12.47;;;6.57;;
71637;SDS011;59485;43.542;-5.676;2023-07-13T04:09:05;17.00;;;6.22;;
71637;SDS011;59485;43.542;-5.676;2023-07-13T04:11:31;15.43;;;6.25;;
71637;SDS011;59485;43.542;-5.676;2023-07-13T04:13:57;16.77;;;6.28;;
71637;SDS011;59485;43.542;-5.676;2023-07-13T04:18:51;12.60;;;5.75;;
71637;SDS011;59485;43.542;-5.676;2023-07-13T04:21:24;13.02;;;5.95;;
71637;SDS011;59485;43.542;-5.676;2023-07-13T04:23:49;11.90;;;6.03;;
71637;SDS011;59485;43.542;-5.676;2023-07-13T04:26:15;9.18;;;5.40;;
71637;SDS011;59485;43.542;-5.676;2023-07-13T04:28:47;12.27;;;5.50;;
71637;SDS011;59485;43.542;-5.676;2023-07-13T04:31:13;13.93;;;4.53;;
71637;SDS011;59485;43.542;-5.676;2023-07-13T04:33:48;11.45;;;5.00;;
71637;SDS011;59485;43.542;-5.676;2023-07-13T04:36:15;10.95;;;4.90;;
71637;SDS011;59485;43.542;-5.676;2023-07-13T04:38:44;12.18;;;5.28;;
71637;SDS011;59485;43.542;-5.676;2023-07-13T04:41:09;12.20;;;4.50;;
71637;SDS011;59485;43.542;-5.676;2023-07-13T04:43:35;9.00;;;4.68;;
71637;SDS011;59485;43.542;-5.676;2023-07-13T04:46:05;10.73;;;5.10;;
71637;SDS011;59485;43.542;-5.676;2023-07-13T04:48:33;12.52;;;5.10;;
71637;SDS011;59485;43.542;-5.676;2023-07-13T04:50:59;8.88;;;4.50;;
71637;SDS011;59485;43.542;-5.676;2023-07-13T04:53:25;9.90;;;4.78;;
71637;SDS011;59485;43.542;-5.676;2023-07-13T04:55:51;7.97;;;4.90;;
71637;SDS011;59485;43.542;-5.676;2023-07-13T04:58:17;11.40;;;4.75;;
71637;SDS011;59485;43.542;-5.676;2023-07-13T05:00:43;12.00;;;5.22;;
71637;SDS011;59485;43.542;-5.676;2023-07-13T05:03:09;11.77;;;5.53;;
71637;SDS011;59485;43.542;-5.676;2023-07-13T05:05:35;10.32;;;4.90;;
71637;SDS011;59485;43.542;-5.676;2023-07-13T05:08:09;13.98;;;5.40;;
71637;SDS011;59485;43.542;-5.676;2023-07-13T05:10:35;11.43;;;4.83;;
71637;SDS011;59485;43.542;-5.676;2023-07-13T05:13:00;11.93;;;5.47;;
71637;SDS011;59485;43.542;-5.676;2023-07-13T05:15:26;10.17;;;5.20;;
71637;SDS011;59485;43.542;-5.676;2023-07-13T05:17:52;11.05;;;5.10;;
71637;SDS011;59485;43.542;-5.676;2023-07-13T05:20:18;9.80;;;5.03;;
71637;SDS011;59485;43.542;-5.676;2023-07-13T05:22:44;13.18;;;5.03;;
71637;SDS011;59485;43.542;-5.676;2023-07-13T05:25:17;11.27;;;5.07;;
71637;SDS011;59485;43.542;-5.676;2023-07-13T05:27:43;9.60;;;4.57;;
71637;SDS011;59485;43.542;-5.676;2023-07-13T05:30:10;11.73;;;5.53;;
71637;SDS011;59485;43.542;-5.676;2023-07-13T05:32:37;10.48;;;5.28;;
71637;SDS011;59485;43.542;-5.676;2023-07-13T05:35:02;13.77;;;5.10;;
71637;SDS011;59485;43.542;-5.676;2023-07-13T05:37:28;12.23;;;4.93;;
71637;SDS011;59485;43.542;-5.676;2023-07-13T05:39:54;11.77;;;5.13;;
71637;SDS011;59485;43.542;-5.676;2023-07-13T05:42:19;13.60;;;4.47;;
71637;SDS011;59485;43.542;-5.676;2023-07-13T05:44:45;11.70;;;4.87;;
71637;SDS011;59485;43.542;-5.676;2023-07-13T05:47:10;8.47;;;4.20;;
71637;SDS011;59485;43.542;-5.676;2023-07-13T05:49:36;9.52;;;4.10;;
71637;SDS011;59485;43.542;-5.676;2023-07-13T05:52:01;10.17;;;4.07;;
71637;SDS011;59485;43.542;-5.676;2023-07-13T05:54:27;11.50;;;4.28;;
71637;SDS011;59485;43.542;-5.676;2023-07-13T05:56:53;10.13;;;4.13;;
71637;SDS011;59485;43.542;-5.676;2023-07-13T05:59:19;10.10;;;4.00;;
71637;SDS011;59485;43.542;-5.676;2023-07-13T06:01:44;9.07;;;3.90;;
71637;SDS011;59485;43.542;-5.676;2023-07-13T06:04:10;10.00;;;4.40;;
71637;SDS011;59485;43.542;-5.676;2023-07-13T06:06:35;10.15;;;4.50;;
71637;SDS011;59485;43.542;-5.676;2023-07-13T06:09:01;10.30;;;4.40;;
71637;SDS011;59485;43.542;-5.676;2023-07-13T06:11:27;10.82;;;4.85;;
71637;SDS011;59485;43.542;-5.676;2023-07-13T06:13:54;11.52;;;4.43;;
71637;SDS011;59485;43.542;-5.676;2023-07-13T06:16:21;9.10;;;4.30;;
71637;SDS011;59485;43.542;-5.676;2023-07-13T06:18:46;11.02;;;4.28;;
71637;SDS011;59485;43.542;-5.676;2023-07-13T06:21:13;13.80;;;4.87;;
71637;SDS011;59485;43.542;-5.676;2023-07-13T06:23:43;9.40;;;4.45;;
71637;SDS011;59485;43.542;-5.676;2023-07-13T06:26:10;11.27;;;5.10;;
71637;SDS011;59485;43.542;-5.676;2023-07-13T06:28:36;11.10;;;4.60;;
71637;SDS011;59485;43.542;-5.676;2023-07-13T06:31:09;10.23;;;4.32;;
71637;SDS011;59485;43.542;-5.676;2023-07-13T06:33:36;10.82;;;4.75;;
71637;SDS011;59485;43.542;-5.676;2023-07-13T06:36:03;15.02;;;4.00;;
71637;SDS011;59485;43.542;-5.676;2023-07-13T06:41:05;10.13;;;4.53;;
71637;SDS011;59485;43.542;-5.676;2023-07-13T06:43:31;14.55;;;5.38;;
71637;SDS011;59485;43.542;-5.676;2023-07-13T06:45:57;12.98;;;7.15;;
71637;SDS011;59485;43.542;-5.676;2023-07-13T06:48:23;13.70;;;6.47;;
71637;SDS011;59485;43.542;-5.676;2023-07-13T06:50:49;13.30;;;5.85;;
71637;SDS011;59485;43.542;-5.676;2023-07-13T06:53:16;10.03;;;4.73;;
71637;SDS011;59485;43.542;-5.676;2023-07-13T06:55:43;10.10;;;4.82;;
71637;SDS011;59485;43.542;-5.676;2023-07-13T06:58:10;13.45;;;4.72;;
71637;SDS011;59485;43.542;-5.676;2023-07-13T07:00:36;9.20;;;3.67;;
71637;SDS011;59485;43.542;-5.676;2023-07-13T07:03:01;9.70;;;3.93;;
71637;SDS011;59485;43.542;-5.676;2023-07-13T07:05:27;7.55;;;3.40;;
71637;SDS011;59485;43.542;-5.676;2023-07-13T07:07:53;7.70;;;3.30;;
71637;SDS011;59485;43.542;-5.676;2023-07-13T07:10:20;8.48;;;3.25;;
71637;SDS011;59485;43.542;-5.676;2023-07-13T07:12:46;9.07;;;3.42;;
71637;SDS011;59485;43.542;-5.676;2023-07-13T07:15:12;9.40;;;3.23;;
71637;SDS011;59485;43.542;-5.676;2023-07-13T07:17:38;7.78;;;3.17;;
71637;SDS011;59485;43.542;-5.676;2023-07-13T07:20:04;8.32;;;2.92;;
71637;SDS011;59485;43.542;-5.676;2023-07-13T07:22:30;8.67;;;2.93;;
71637;SDS011;59485;43.542;-5.676;2023-07-13T07:24:56;5.80;;;2.60;;
71637;SDS011;59485;43.542;-5.676;2023-07-13T07:27:23;8.57;;;2.10;;
71637;SDS011;59485;43.542;-5.676;2023-07-13T07:29:51;6.53;;;1.70;;
71637;SDS011;59485;43.542;-5.676;2023-07-13T07:32:17;6.18;;;1.55;;
71637;SDS011;59485;43.542;-5.676;2023-07-13T07:34:44;6.38;;;1.58;;
71637;SDS011;59485;43.542;-5.676;2023-07-13T07:37:10;6.90;;;1.90;;
71637;SDS011;59485;43.542;-5.676;2023-07-13T07:39:37;6.13;;;1.70;;
71637;SDS011;59485;43.542;-5.676;2023-07-13T07:42:03;7.45;;;1.73;;
71637;SDS011;59485;43.542;-5.676;2023-07-13T07:44:32;4.53;;;1.42;;
71637;SDS011;59485;43.542;-5.676;2023-07-13T07:46:58;8.07;;;1.80;;
71637;SDS011;59485;43.542;-5.676;2023-07-13T07:49:24;6.73;;;1.63;;
71637;SDS011;59485;43.542;-5.676;2023-07-13T07:51:50;7.35;;;1.70;;
71637;SDS011;59485;43.542;-5.676;2023-07-13T07:54:16;6.60;;;1.67;;
71637;SDS011;59485;43.542;-5.676;2023-07-13T07:56:42;5.20;;;1.00;;
71637;SDS011;59485;43.542;-5.676;2023-07-13T07:59:07;5.97;;;1.67;;
71637;SDS011;59485;43.542;-5.676;2023-07-13T08:01:33;7.40;;;1.77;;
71637;SDS011;59485;43.542;-5.676;2023-07-13T08:03:59;7.43;;;1.50;;
71637;SDS011;59485;43.542;-5.676;2023-07-13T08:06:24;5.27;;;1.40;;
71637;SDS011;59485;43.542;-5.676;2023-07-13T08:08:50;8.32;;;1.90;;
71637;SDS011;59485;43.542;-5.676;2023-07-13T08:11:20;7.37;;;1.27;;
71637;SDS011;59485;43.542;-5.676;2023-07-13T08:13:46;6.47;;;1.23;;
71637;SDS011;59485;43.542;-5.676;2023-07-13T08:16:11;7.10;;;2.00;;
71637;SDS011;59485;43.542;-5.676;2023-07-13T08:18:37;6.63;;;1.27;;
71637;SDS011;59485;43.542;-5.676;2023-07-13T08:21:03;6.97;;;1.50;;
71637;SDS011;59485;43.542;-5.676;2023-07-13T08:23:33;5.35;;;0.90;;
71637;SDS011;59485;43.542;-5.676;2023-07-13T08:25:59;4.93;;;1.67;;
71637;SDS011;59485;43.542;-5.676;2023-07-13T08:28:29;6.40;;;1.03;;
71637;SDS011;59485;43.542;-5.676;2023-07-13T08:30:59;8.07;;;1.30;;
71637;SDS011;59485;43.542;-5.676;2023-07-13T08:33:26;7.00;;;1.50;;
71637;SDS011;59485;43.542;-5.676;2023-07-13T08:35:51;8.13;;;1.40;;
71637;SDS011;59485;43.542;-5.676;2023-07-13T08:38:17;11.38;;;1.40;;
71637;SDS011;59485;43.542;-5.676;2023-07-13T08:40:43;5.65;;;1.40;;
71637;SDS011;59485;43.542;-5.676;2023-07-13T08:43:13;5.70;;;1.27;;
71637;SDS011;59485;43.542;-5.676;2023-07-13T08:45:52;12.10;;;3.47;;
71637;SDS011;59485;43.542;-5.676;2023-07-13T08:48:23;6.60;;;1.52;;
71637;SDS011;59485;43.542;-5.676;2023-07-13T08:50:57;5.10;;;1.10;;
71637;SDS011;59485;43.542;-5.676;2023-07-13T08:53:36;4.20;;;1.30;;
71637;SDS011;59485;43.542;-5.676;2023-07-13T08:56:08;6.43;;;1.20;;
71637;SDS011;59485;43.542;-5.676;2023-07-13T08:58:38;4.93;;;0.88;;
71637;SDS011;59485;43.542;-5.676;2023-07-13T09:01:22;4.45;;;1.35;;
71637;SDS011;59485;43.542;-5.676;2023-07-13T09:04:14;7.47;;;1.70;;
71637;SDS011;59485;43.542;-5.676;2023-07-13T09:12:46;7.45;;;1.85;;
71637;SDS011;59485;43.542;-5.676;2023-07-13T09:18:45;5.63;;;2.03;;
71637;SDS011;59485;43.542;-5.676;2023-07-13T09:21:13;4.40;;;1.10;;
71637;SDS011;59485;43.542;-5.676;2023-07-13T09:23:40;5.30;;;1.60;;
71637;SDS011;59485;43.542;-5.676;2023-07-13T09:28:44;5.97;;;1.42;;
71637;SDS011;59485;43.542;-5.676;2023-07-13T09:31:14;5.95;;;0.98;;
71637;SDS011;59485;43.542;-5.676;2023-07-13T09:33:45;5.63;;;0.95;;
71637;SDS011;59485;43.542;-5.676;2023-07-13T09:36:16;4.67;;;0.80;;
71637;SDS011;59485;43.542;-5.676;2023-07-13T09:38:44;5.30;;;1.20;;
71637;SDS011;59485;43.542;-5.676;2023-07-13T09:44:56;4.75;;;1.17;;
71637;SDS011;59485;43.542;-5.676;2023-07-13T09:47:23;6.55;;;1.25;;
71637;SDS011;59485;43.542;-5.676;2023-07-13T09:52:25;7.07;;;1.25;;
71637;SDS011;59485;43.542;-5.676;2023-07-13T09:54:52;5.50;;;1.60;;
71637;SDS011;59485;43.542;-5.676;2023-07-13T09:57:25;4.80;;;1.30;;
71637;SDS011;59485;43.542;-5.676;2023-07-13T09:59:53;4.10;;;0.65;;
71637;SDS011;59485;43.542;-5.676;2023-07-13T10:02:32;5.60;;;1.63;;
71637;SDS011;59485;43.542;-5.676;2023-07-13T10:07:28;4.00;;;1.52;;
71637;SDS011;59485;43.542;-5.676;2023-07-13T10:09:58;4.35;;;1.00;;
71637;SDS011;59485;43.542;-5.676;2023-07-13T10:12:26;4.45;;;0.98;;
71637;SDS011;59485;43.542;-5.676;2023-07-13T10:14:54;6.33;;;1.47;;
71637;SDS011;59485;43.542;-5.676;2023-07-13T10:17:26;4.57;;;1.20;;
71637;SDS011;59485;43.542;-5.676;2023-07-13T10:19:59;4.53;;;1.10;;
71637;SDS011;59485;43.542;-5.676;2023-07-13T10:25:33;6.43;;;1.90;;
71637;SDS011;59485;43.542;-5.676;2023-07-13T10:28:11;4.20;;;1.33;;
71637;SDS011;59485;43.542;-5.676;2023-07-13T10:30:58;6.00;;;2.08;;
71637;SDS011;59485;43.542;-5.676;2023-07-13T10:33:25;10.13;;;2.30;;
71637;SDS011;59485;43.542;-5.676;2023-07-13T10:36:01;8.05;;;1.35;;
71637;SDS011;59485;43.542;-5.676;2023-07-13T10:38:43;5.95;;;1.55;;
71637;SDS011;59485;43.542;-5.676;2023-07-13T10:41:30;5.43;;;2.07;;
71637;SDS011;59485;43.542;-5.676;2023-07-13T10:44:03;8.07;;;2.33;;
71637;SDS011;59485;43.542;-5.676;2023-07-13T10:46:42;7.50;;;1.63;;
71637;SDS011;59485;43.542;-5.676;2023-07-13T10:49:09;6.40;;;1.73;;
71637;SDS011;59485;43.542;-5.676;2023-07-13T10:51:37;8.98;;;2.08;;
71637;SDS011;59485;43.542;-5.676;2023-07-13T11:02:41;6.43;;;0.93;;
71637;SDS011;59485;43.542;-5.676;2023-07-13T11:16:34;5.40;;;0.83;;
71637;SDS011;59485;43.542;-5.676;2023-07-13T11:21:27;6.03;;;1.80;;
71637;SDS011;59485;43.542;-5.676;2023-07-13T11:27:00;7.00;;;2.38;;
71637;SDS011;59485;43.542;-5.676;2023-07-13T11:35:50;7.87;;;1.63;;
71637;SDS011;59485;43.542;-5.676;2023-07-13T11:41:10;7.15;;;1.95;;
71637;SDS011;59485;43.542;-5.676;2023-07-13T11:43:41;8.77;;;1.70;;
71637;SDS011;59485;43.542;-5.676;2023-07-13T11:46:14;4.63;;;1.40;;
71637;SDS011;59485;43.542;-5.676;2023-07-13T11:49:04;6.57;;;1.47;;
71637;SDS011;59485;43.542;-5.676;2023-07-13T11:53:56;6.82;;;2.53;;
71637;SDS011;59485;43.542;-5.676;2023-07-13T11:58:53;7.18;;;1.63;;
71637;SDS011;59485;43.542;-5.676;2023-07-13T12:03:52;6.33;;;1.80;;
71637;SDS011;59485;43.542;-5.676;2023-07-13T12:06:29;13.50;;;1.48;;
71637;SDS011;59485;43.542;-5.676;2023-07-13T12:09:02;5.25;;;1.05;;
71637;SDS011;59485;43.542;-5.676;2023-07-13T12:11:47;8.65;;;1.75;;
71637;SDS011;59485;43.542;-5.676;2023-07-13T12:14:16;5.93;;;1.87;;
71637;SDS011;59485;43.542;-5.676;2023-07-13T12:16:43;5.32;;;1.52;;
71637;SDS011;59485;43.542;-5.676;2023-07-13T12:19:28;6.20;;;1.25;;
71637;SDS011;59485;43.542;-5.676;2023-07-13T12:21:57;7.43;;;1.50;;
71637;SDS011;59485;43.542;-5.676;2023-07-13T12:26:59;9.52;;;3.05;;
71637;SDS011;59485;43.542;-5.676;2023-07-13T12:29:27;8.35;;;2.35;;
71637;SDS011;59485;43.542;-5.676;2023-07-13T12:31:52;8.00;;;1.57;;
71637;SDS011;59485;43.542;-5.676;2023-07-13T12:34:19;6.43;;;1.80;;
71637;SDS011;59485;43.542;-5.676;2023-07-13T12:39:37;8.37;;;1.90;;
71637;SDS011;59485;43.542;-5.676;2023-07-13T12:42:14;8.50;;;3.33;;
71637;SDS011;59485;43.542;-5.676;2023-07-13T12:45:54;6.43;;;1.80;;
71637;SDS011;59485;43.542;-5.676;2023-07-13T12:47:52;15.50;;;6.10;;
71637;SDS011;59485;43.542;-5.676;2023-07-13T12:50:21;10.85;;;4.07;;
71637;SDS011;59485;43.542;-5.676;2023-07-13T12:53:02;8.63;;;2.63;;
71637;SDS011;59485;43.542;-5.676;2023-07-13T12:55:39;8.73;;;3.03;;
71637;SDS011;59485;43.542;-5.676;2023-07-13T12:58:13;7.82;;;3.30;;
71637;SDS011;59485;43.542;-5.676;2023-07-13T13:00:50;10.15;;;4.32;;
71637;SDS011;59485;43.542;-5.676;2023-07-13T13:03:22;11.90;;;4.82;;
71637;SDS011;59485;43.542;-5.676;2023-07-13T13:08:40;12.07;;;3.83;;
71637;SDS011;59485;43.542;-5.676;2023-07-13T13:11:07;13.63;;;2.67;;
71637;SDS011;59485;43.542;-5.676;2023-07-13T13:13:34;9.73;;;2.10;;
71637;SDS011;59485;43.542;-5.676;2023-07-13T13:16:07;9.90;;;1.80;;
71637;SDS011;59485;43.542;-5.676;2023-07-13T13:18:34;17.23;;;2.90;;
71637;SDS011;59485;43.542;-5.676;2023-07-13T13:21:01;8.88;;;2.55;;
71637;SDS011;59485;43.542;-5.676;2023-07-13T13:23:27;9.00;;;2.00;;
71637;SDS011;59485;43.542;-5.676;2023-07-13T13:25:56;9.48;;;2.42;;
71637;SDS011;59485;43.542;-5.676;2023-07-13T13:28:23;27.20;;;11.90;;
71637;SDS011;59485;43.542;-5.676;2023-07-13T13:30:49;10.67;;;2.03;;
71637;SDS011;59485;43.542;-5.676;2023-07-13T13:33:27;8.05;;;2.33;;
71637;SDS011;59485;43.542;-5.676;2023-07-13T13:35:53;8.23;;;1.60;;
71637;SDS011;59485;43.542;-5.676;2023-07-13T13:38:26;9.73;;;2.45;;
71637;SDS011;59485;43.542;-5.676;2023-07-13T13:40:52;9.82;;;2.92;;
71637;SDS011;59485;43.542;-5.676;2023-07-13T13:43:38;7.03;;;1.80;;
71637;SDS011;59485;43.542;-5.676;2023-07-13T13:46:24;7.97;;;2.42;;
71637;SDS011;59485;43.542;-5.676;2023-07-13T13:48:50;11.15;;;5.28;;
71637;SDS011;59485;43.542;-5.676;2023-07-13T13:51:17;10.55;;;1.40;;
71637;SDS011;59485;43.542;-5.676;2023-07-13T13:53:45;16.02;;;3.80;;
71637;SDS011;59485;43.542;-5.676;2023-07-13T13:56:12;8.77;;;2.23;;
71637;SDS011;59485;43.542;-5.676;2023-07-13T13:58:38;17.52;;;3.13;;
71637;SDS011;59485;43.542;-5.676;2023-07-13T14:01:04;12.77;;;3.03;;
71637;SDS011;59485;43.542;-5.676;2023-07-13T14:03:36;9.52;;;2.10;;
71637;SDS011;59485;43.542;-5.676;2023-07-13T14:06:02;15.40;;;2.30;;
71637;SDS011;59485;43.542;-5.676;2023-07-13T14:08:28;14.90;;;2.27;;
71637;SDS011;59485;43.542;-5.676;2023-07-13T14:10:54;6.45;;;1.42;;
71637;SDS011;59485;43.542;-5.676;2023-07-13T14:13:24;5.37;;;1.73;;
71637;SDS011;59485;43.542;-5.676;2023-07-13T14:15:55;9.52;;;2.17;;
71637;SDS011;59485;43.542;-5.676;2023-07-13T14:18:27;14.43;;;1.63;;
71637;SDS011;59485;43.542;-5.676;2023-07-13T14:21:02;9.77;;;2.30;;
71637;SDS011;59485;43.542;-5.676;2023-07-13T14:23:31;10.90;;;4.18;;
71637;SDS011;59485;43.542;-5.676;2023-07-13T14:25:56;15.18;;;3.80;;
71637;SDS011;59485;43.542;-5.676;2023-07-13T14:28:23;20.10;;;6.17;;
71637;SDS011;59485;43.542;-5.676;2023-07-13T14:30:50;20.67;;;6.22;;
71637;SDS011;59485;43.542;-5.676;2023-07-13T14:33:17;10.02;;;2.78;;
71637;SDS011;59485;43.542;-5.676;2023-07-13T14:35:43;12.15;;;2.35;;
71637;SDS011;59485;43.542;-5.676;2023-07-13T14:38:21;12.15;;;2.00;;
71637;SDS011;59485;43.542;-5.676;2023-07-13T14:43:13;10.57;;;1.67;;
71637;SDS011;59485;43.542;-5.676;2023-07-13T14:45:40;10.73;;;1.65;;
71637;SDS011;59485;43.542;-5.676;2023-07-13T14:48:21;9.15;;;1.23;;
71637;SDS011;59485;43.542;-5.676;2023-07-13T14:50:53;13.15;;;1.33;;
71637;SDS011;59485;43.542;-5.676;2023-07-13T14:53:21;4.40;;;1.33;;
71637;SDS011;59485;43.542;-5.676;2023-07-13T14:55:47;25.13;;;2.07;;
71637;SDS011;59485;43.542;-5.676;2023-07-13T14:58:12;8.25;;;0.90;;
71637;SDS011;59485;43.542;-5.676;2023-07-13T15:00:39;12.50;;;1.42;;
71637;SDS011;59485;43.542;-5.676;2023-07-13T15:03:34;5.20;;;1.10;;
71637;SDS011;59485;43.542;-5.676;2023-07-13T15:06:02;12.80;;;1.53;;
71637;SDS011;59485;43.542;-5.676;2023-07-13T15:08:28;5.65;;;1.25;;
71637;SDS011;59485;43.542;-5.676;2023-07-13T15:10:56;10.40;;;1.50;;
71637;SDS011;59485;43.542;-5.676;2023-07-13T15:13:25;8.13;;;1.60;;
71637;SDS011;59485;43.542;-5.676;2023-07-13T15:15:53;6.68;;;1.45;;
71637;SDS011;59485;43.542;-5.676;2023-07-13T15:18:21;10.38;;;1.80;;
71637;SDS011;59485;43.542;-5.676;2023-07-13T15:20:49;8.77;;;1.00;;
71637;SDS011;59485;43.542;-5.676;2023-07-13T15:23:16;8.55;;;1.42;;
71637;SDS011;59485;43.542;-5.676;2023-07-13T15:25:45;6.47;;;1.08;;
71637;SDS011;59485;43.542;-5.676;2023-07-13T15:28:11;10.98;;;2.10;;
71637;SDS011;59485;43.542;-5.676;2023-07-13T15:30:47;8.10;;;1.67;;
71637;SDS011;59485;43.542;-5.676;2023-07-13T15:33:15;7.43;;;1.47;;
71637;SDS011;59485;43.542;-5.676;2023-07-13T15:35:44;10.48;;;0.52;;
71637;SDS011;59485;43.542;-5.676;2023-07-13T15:38:15;8.32;;;1.30;;
71637;SDS011;59485;43.542;-5.676;2023-07-13T15:41:08;12.88;;;1.27;;
71637;SDS011;59485;43.542;-5.676;2023-07-13T15:46:21;8.43;;;1.83;;
71637;SDS011;59485;43.542;-5.676;2023-07-13T15:51:23;8.25;;;1.40;;
71637;SDS011;59485;43.542;-5.676;2023-07-13T15:53:52;22.85;;;2.25;;
71637;SDS011;59485;43.542;-5.676;2023-07-13T15:56:21;5.25;;;1.00;;
71637;SDS011;59485;43.542;-5.676;2023-07-13T15:58:49;9.10;;;2.00;;
71637;SDS011;59485;43.542;-5.676;2023-07-13T16:01:16;9.60;;;1.33;;
71637;SDS011;59485;43.542;-5.676;2023-07-13T16:06:34;8.27;;;1.52;;
71637;SDS011;59485;43.542;-5.676;2023-07-13T16:11:34;10.57;;;1.33;;
71637;SDS011;59485;43.542;-5.676;2023-07-13T16:14:02;11.48;;;1.95;;
71637;SDS011;59485;43.542;-5.676;2023-07-13T16:16:29;7.00;;;1.63;;
71637;SDS011;59485;43.542;-5.676;2023-07-13T16:18:57;15.82;;;1.98;;
71637;SDS011;59485;43.542;-5.676;2023-07-13T16:21:25;7.22;;;1.95;;
71637;SDS011;59485;43.542;-5.676;2023-07-13T16:23:53;8.00;;;1.90;;